sensor_id;sensor_type;location;lat;lon;timestamp;P1;durP1;ratioP1;P2;durP2;ratioP2
67372;SDS011;54257;54.496;18.412;2023-05-07T00:02:06;9.90;;;6.70;;
67372;SDS011;54257;54.496;18.412;2023-05-07T00:04:33;8.30;;;5.90;;
67372;SDS011;54257;54.496;18.412;2023-05-07T00:07:04;8.80;;;5.70;;
67372;SDS011;54257;54.496;18.412;2023-05-07T00:09:32;8.80;;;6.20;;
67372;SDS011;54257;54.496;18.412;2023-05-07T00:11:58;9.70;;;6.80;;
67372;SDS011;54257;54.496;18.412;2023-05-07T00:14:26;6.90;;;5.80;;
67372;SDS011;54257;54.496;18.412;2023-05-07T00:16:52;9.80;;;6.70;;
67372;SDS011;54257;54.496;18.412;2023-05-07T00:19:19;12.20;;;6.80;;
67372;SDS011;54257;54.496;18.412;2023-05-07T00:21:46;9.90;;;6.60;;
67372;SDS011;54257;54.496;18.412;2023-05-07T00:24:14;8.70;;;6.30;;
67372;SDS011;54257;54.496;18.412;2023-05-07T00:26:41;10.00;;;6.40;;
67372;SDS011;54257;54.496;18.412;2023-05-07T00:29:08;10.40;;;6.00;;
67372;SDS011;54257;54.496;18.412;2023-05-07T00:31:35;7.80;;;6.20;;
67372;SDS011;54257;54.496;18.412;2023-05-07T00:34:02;9.30;;;6.10;;
67372;SDS011;54257;54.496;18.412;2023-05-07T00:36:29;10.60;;;6.20;;
67372;SDS011;54257;54.496;18.412;2023-05-07T00:38:56;7.50;;;5.60;;
67372;SDS011;54257;54.496;18.412;2023-05-07T00:41:26;10.30;;;5.20;;
67372;SDS011;54257;54.496;18.412;2023-05-07T00:43:53;8.00;;;5.40;;
67372;SDS011;54257;54.496;18.412;2023-05-07T00:46:20;7.70;;;5.40;;
67372;SDS011;54257;54.496;18.412;2023-05-07T00:48:47;8.90;;;5.60;;
67372;SDS011;54257;54.496;18.412;2023-05-07T00:51:15;10.60;;;5.70;;
67372;SDS011;54257;54.496;18.412;2023-05-07T00:53:42;8.10;;;5.30;;
67372;SDS011;54257;54.496;18.412;2023-05-07T00:56:08;7.30;;;5.00;;
67372;SDS011;54257;54.496;18.412;2023-05-07T00:58:36;8.50;;;5.50;;
67372;SDS011;54257;54.496;18.412;2023-05-07T01:01:03;9.10;;;5.00;;
67372;SDS011;54257;54.496;18.412;2023-05-07T01:03:30;7.50;;;5.20;;
67372;SDS011;54257;54.496;18.412;2023-05-07T01:05:57;8.00;;;5.20;;
67372;SDS011;54257;54.496;18.412;2023-05-07T01:08:26;8.70;;;5.20;;
67372;SDS011;54257;54.496;18.412;2023-05-07T01:10:56;7.90;;;5.10;;
67372;SDS011;54257;54.496;18.412;2023-05-07T01:13:23;6.80;;;4.90;;
67372;SDS011;54257;54.496;18.412;2023-05-07T01:15:51;7.20;;;5.00;;
67372;SDS011;54257;54.496;18.412;2023-05-07T01:18:17;6.90;;;5.00;;
67372;SDS011;54257;54.496;18.412;2023-05-07T01:20:45;6.30;;;5.10;;
67372;SDS011;54257;54.496;18.412;2023-05-07T01:23:11;6.30;;;4.60;;
67372;SDS011;54257;54.496;18.412;2023-05-07T01:25:39;8.60;;;5.20;;
67372;SDS011;54257;54.496;18.412;2023-05-07T01:28:06;7.90;;;5.20;;
67372;SDS011;54257;54.496;18.412;2023-05-07T01:30:32;8.20;;;5.70;;
67372;SDS011;54257;54.496;18.412;2023-05-07T01:33:05;7.10;;;4.90;;
67372;SDS011;54257;54.496;18.412;2023-05-07T01:35:39;8.80;;;5.00;;
67372;SDS011;54257;54.496;18.412;2023-05-07T01:38:08;9.50;;;5.20;;
67372;SDS011;54257;54.496;18.412;2023-05-07T01:40:35;7.00;;;4.90;;
67372;SDS011;54257;54.496;18.412;2023-05-07T01:43:03;8.40;;;5.10;;
67372;SDS011;54257;54.496;18.412;2023-05-07T01:45:31;8.10;;;4.70;;
67372;SDS011;54257;54.496;18.412;2023-05-07T01:47:58;6.40;;;5.00;;
67372;SDS011;54257;54.496;18.412;2023-05-07T01:50:28;7.60;;;4.80;;
67372;SDS011;54257;54.496;18.412;2023-05-07T01:52:57;6.40;;;4.90;;
67372;SDS011;54257;54.496;18.412;2023-05-07T01:55:24;8.50;;;4.90;;
67372;SDS011;54257;54.496;18.412;2023-05-07T01:57:50;8.30;;;5.40;;
67372;SDS011;54257;54.496;18.412;2023-05-07T02:00:17;6.70;;;4.70;;
67372;SDS011;54257;54.496;18.412;2023-05-07T02:02:45;8.00;;;5.00;;
67372;SDS011;54257;54.496;18.412;2023-05-07T02:05:13;7.60;;;5.10;;
67372;SDS011;54257;54.496;18.412;2023-05-07T02:07:39;7.50;;;4.40;;
67372;SDS011;54257;54.496;18.412;2023-05-07T02:10:06;6.40;;;4.80;;
67372;SDS011;54257;54.496;18.412;2023-05-07T02:12:33;7.40;;;5.00;;
67372;SDS011;54257;54.496;18.412;2023-05-07T02:15:00;7.20;;;5.30;;
67372;SDS011;54257;54.496;18.412;2023-05-07T02:17:27;7.80;;;5.00;;
67372;SDS011;54257;54.496;18.412;2023-05-07T02:19:58;6.70;;;4.60;;
67372;SDS011;54257;54.496;18.412;2023-05-07T02:22:25;6.10;;;4.30;;
67372;SDS011;54257;54.496;18.412;2023-05-07T02:24:52;6.50;;;5.30;;
67372;SDS011;54257;54.496;18.412;2023-05-07T02:27:19;6.20;;;4.10;;
67372;SDS011;54257;54.496;18.412;2023-05-07T02:29:46;8.00;;;4.90;;
67372;SDS011;54257;54.496;18.412;2023-05-07T02:32:12;6.70;;;4.80;;
67372;SDS011;54257;54.496;18.412;2023-05-07T02:34:39;6.60;;;4.30;;
67372;SDS011;54257;54.496;18.412;2023-05-07T02:37:09;6.40;;;5.20;;
67372;SDS011;54257;54.496;18.412;2023-05-07T02:39:36;6.10;;;4.40;;
67372;SDS011;54257;54.496;18.412;2023-05-07T02:42:03;5.90;;;4.50;;
67372;SDS011;54257;54.496;18.412;2023-05-07T02:44:30;6.90;;;4.80;;
67372;SDS011;54257;54.496;18.412;2023-05-07T02:46:57;5.80;;;4.50;;
67372;SDS011;54257;54.496;18.412;2023-05-07T02:49:24;6.60;;;4.50;;
67372;SDS011;54257;54.496;18.412;2023-05-07T02:51:51;6.90;;;4.50;;
67372;SDS011;54257;54.496;18.412;2023-05-07T02:54:17;7.90;;;5.60;;
67372;SDS011;54257;54.496;18.412;2023-05-07T02:56:44;6.60;;;4.90;;
67372;SDS011;54257;54.496;18.412;2023-05-07T02:59:11;8.80;;;4.70;;
67372;SDS011;54257;54.496;18.412;2023-05-07T03:01:38;9.00;;;4.30;;
67372;SDS011;54257;54.496;18.412;2023-05-07T03:04:05;7.10;;;5.10;;
67372;SDS011;54257;54.496;18.412;2023-05-07T03:06:31;6.90;;;4.90;;
67372;SDS011;54257;54.496;18.412;2023-05-07T03:08:58;5.10;;;4.40;;
67372;SDS011;54257;54.496;18.412;2023-05-07T03:11:25;6.80;;;4.80;;
67372;SDS011;54257;54.496;18.412;2023-05-07T03:13:52;6.10;;;4.80;;
67372;SDS011;54257;54.496;18.412;2023-05-07T03:16:18;6.20;;;4.10;;
67372;SDS011;54257;54.496;18.412;2023-05-07T03:18:45;4.90;;;4.20;;
67372;SDS011;54257;54.496;18.412;2023-05-07T03:21:12;8.70;;;4.50;;
67372;SDS011;54257;54.496;18.412;2023-05-07T03:23:39;6.80;;;4.10;;
67372;SDS011;54257;54.496;18.412;2023-05-07T03:26:05;7.20;;;4.60;;
67372;SDS011;54257;54.496;18.412;2023-05-07T03:28:35;5.00;;;4.40;;
67372;SDS011;54257;54.496;18.412;2023-05-07T03:31:02;7.20;;;5.00;;
67372;SDS011;54257;54.496;18.412;2023-05-07T03:33:29;7.00;;;4.70;;
67372;SDS011;54257;54.496;18.412;2023-05-07T03:35:55;12.90;;;5.40;;
67372;SDS011;54257;54.496;18.412;2023-05-07T03:38:22;7.20;;;5.10;;
67372;SDS011;54257;54.496;18.412;2023-05-07T03:40:49;8.10;;;5.00;;
67372;SDS011;54257;54.496;18.412;2023-05-07T03:43:16;10.90;;;8.00;;
67372;SDS011;54257;54.496;18.412;2023-05-07T03:45:42;11.10;;;7.60;;
67372;SDS011;54257;54.496;18.412;2023-05-07T03:48:09;8.20;;;6.10;;
67372;SDS011;54257;54.496;18.412;2023-05-07T03:50:36;7.80;;;6.40;;
67372;SDS011;54257;54.496;18.412;2023-05-07T03:53:03;9.70;;;7.00;;
67372;SDS011;54257;54.496;18.412;2023-05-07T03:55:29;10.40;;;6.70;;
67372;SDS011;54257;54.496;18.412;2023-05-07T03:57:56;9.80;;;6.40;;
67372;SDS011;54257;54.496;18.412;2023-05-07T04:00:23;8.90;;;7.30;;
67372;SDS011;54257;54.496;18.412;2023-05-07T04:02:49;9.90;;;6.90;;
67372;SDS011;54257;54.496;18.412;2023-05-07T04:05:16;9.30;;;7.40;;
67372;SDS011;54257;54.496;18.412;2023-05-07T04:07:43;10.30;;;6.80;;
67372;SDS011;54257;54.496;18.412;2023-05-07T04:10:10;9.20;;;6.70;;
67372;SDS011;54257;54.496;18.412;2023-05-07T04:12:37;10.10;;;8.40;;
67372;SDS011;54257;54.496;18.412;2023-05-07T04:15:04;10.60;;;7.20;;
67372;SDS011;54257;54.496;18.412;2023-05-07T04:17:31;10.60;;;6.70;;
67372;SDS011;54257;54.496;18.412;2023-05-07T04:19:58;11.20;;;6.80;;
67372;SDS011;54257;54.496;18.412;2023-05-07T04:22:25;10.20;;;8.40;;
67372;SDS011;54257;54.496;18.412;2023-05-07T04:24:52;10.90;;;8.00;;
67372;SDS011;54257;54.496;18.412;2023-05-07T04:27:18;13.30;;;8.70;;
67372;SDS011;54257;54.496;18.412;2023-05-07T04:29:45;12.20;;;8.80;;
67372;SDS011;54257;54.496;18.412;2023-05-07T04:32:13;11.00;;;7.90;;
67372;SDS011;54257;54.496;18.412;2023-05-07T04:34:40;12.10;;;6.90;;
67372;SDS011;54257;54.496;18.412;2023-05-07T04:37:07;8.10;;;5.60;;
67372;SDS011;54257;54.496;18.412;2023-05-07T04:39:34;9.10;;;5.30;;
67372;SDS011;54257;54.496;18.412;2023-05-07T04:42:01;8.80;;;5.10;;
67372;SDS011;54257;54.496;18.412;2023-05-07T04:44:29;9.20;;;4.60;;
67372;SDS011;54257;54.496;18.412;2023-05-07T04:46:57;7.70;;;4.70;;
67372;SDS011;54257;54.496;18.412;2023-05-07T04:49:24;6.90;;;4.50;;
67372;SDS011;54257;54.496;18.412;2023-05-07T04:51:51;6.70;;;3.50;;
67372;SDS011;54257;54.496;18.412;2023-05-07T04:54:17;8.40;;;4.60;;
67372;SDS011;54257;54.496;18.412;2023-05-07T04:56:44;8.80;;;4.00;;
67372;SDS011;54257;54.496;18.412;2023-05-07T04:59:11;5.20;;;4.20;;
67372;SDS011;54257;54.496;18.412;2023-05-07T05:01:38;6.20;;;4.10;;
67372;SDS011;54257;54.496;18.412;2023-05-07T05:04:05;6.10;;;3.50;;
67372;SDS011;54257;54.496;18.412;2023-05-07T05:06:32;7.00;;;4.20;;
67372;SDS011;54257;54.496;18.412;2023-05-07T05:08:58;7.50;;;4.10;;
67372;SDS011;54257;54.496;18.412;2023-05-07T05:11:25;7.00;;;3.90;;
67372;SDS011;54257;54.496;18.412;2023-05-07T05:13:52;6.60;;;3.70;;
67372;SDS011;54257;54.496;18.412;2023-05-07T05:16:19;4.90;;;3.70;;
67372;SDS011;54257;54.496;18.412;2023-05-07T05:18:46;5.90;;;3.30;;
67372;SDS011;54257;54.496;18.412;2023-05-07T05:21:13;4.60;;;3.60;;
67372;SDS011;54257;54.496;18.412;2023-05-07T05:23:40;4.20;;;3.00;;
67372;SDS011;54257;54.496;18.412;2023-05-07T05:26:06;5.10;;;3.00;;
67372;SDS011;54257;54.496;18.412;2023-05-07T05:28:33;4.00;;;3.00;;
67372;SDS011;54257;54.496;18.412;2023-05-07T05:31:00;4.90;;;3.30;;
67372;SDS011;54257;54.496;18.412;2023-05-07T05:33:27;4.60;;;3.10;;
67372;SDS011;54257;54.496;18.412;2023-05-07T05:35:54;6.30;;;3.30;;
67372;SDS011;54257;54.496;18.412;2023-05-07T05:38:21;4.90;;;3.30;;
67372;SDS011;54257;54.496;18.412;2023-05-07T05:40:47;4.30;;;3.10;;
67372;SDS011;54257;54.496;18.412;2023-05-07T05:43:14;5.50;;;3.70;;
67372;SDS011;54257;54.496;18.412;2023-05-07T05:45:41;5.00;;;3.40;;
67372;SDS011;54257;54.496;18.412;2023-05-07T05:48:07;3.80;;;3.00;;
67372;SDS011;54257;54.496;18.412;2023-05-07T05:50:34;4.10;;;2.70;;
67372;SDS011;54257;54.496;18.412;2023-05-07T05:53:04;4.00;;;2.90;;
67372;SDS011;54257;54.496;18.412;2023-05-07T05:55:31;5.10;;;2.90;;
67372;SDS011;54257;54.496;18.412;2023-05-07T05:57:59;5.50;;;3.10;;
67372;SDS011;54257;54.496;18.412;2023-05-07T06:00:27;7.30;;;3.20;;
67372;SDS011;54257;54.496;18.412;2023-05-07T06:02:55;4.90;;;3.60;;
67372;SDS011;54257;54.496;18.412;2023-05-07T06:05:22;4.50;;;3.50;;
67372;SDS011;54257;54.496;18.412;2023-05-07T06:07:49;4.10;;;2.90;;
67372;SDS011;54257;54.496;18.412;2023-05-07T06:10:15;6.00;;;3.20;;
67372;SDS011;54257;54.496;18.412;2023-05-07T06:12:43;5.80;;;3.40;;
67372;SDS011;54257;54.496;18.412;2023-05-07T06:15:10;4.70;;;2.60;;
67372;SDS011;54257;54.496;18.412;2023-05-07T06:17:37;4.60;;;3.20;;
67372;SDS011;54257;54.496;18.412;2023-05-07T06:20:04;6.40;;;3.30;;
67372;SDS011;54257;54.496;18.412;2023-05-07T06:22:32;4.60;;;2.80;;
67372;SDS011;54257;54.496;18.412;2023-05-07T06:25:01;5.00;;;3.20;;
67372;SDS011;54257;54.496;18.412;2023-05-07T06:27:28;4.70;;;2.90;;
67372;SDS011;54257;54.496;18.412;2023-05-07T06:29:55;8.00;;;3.30;;
67372;SDS011;54257;54.496;18.412;2023-05-07T06:32:22;3.70;;;2.70;;
67372;SDS011;54257;54.496;18.412;2023-05-07T06:34:49;3.20;;;2.80;;
67372;SDS011;54257;54.496;18.412;2023-05-07T06:37:16;5.30;;;2.70;;
67372;SDS011;54257;54.496;18.412;2023-05-07T06:39:42;3.00;;;1.90;;
67372;SDS011;54257;54.496;18.412;2023-05-07T06:42:09;3.00;;;2.40;;
67372;SDS011;54257;54.496;18.412;2023-05-07T06:44:36;4.10;;;2.50;;
67372;SDS011;54257;54.496;18.412;2023-05-07T06:47:03;3.60;;;2.50;;
67372;SDS011;54257;54.496;18.412;2023-05-07T06:49:31;3.00;;;2.50;;
67372;SDS011;54257;54.496;18.412;2023-05-07T06:51:58;4.00;;;2.40;;
67372;SDS011;54257;54.496;18.412;2023-05-07T06:54:26;2.60;;;2.20;;
67372;SDS011;54257;54.496;18.412;2023-05-07T06:56:52;3.00;;;2.40;;
67372;SDS011;54257;54.496;18.412;2023-05-07T06:59:19;2.70;;;2.30;;
67372;SDS011;54257;54.496;18.412;2023-05-07T07:01:46;3.10;;;2.20;;
67372;SDS011;54257;54.496;18.412;2023-05-07T07:04:13;3.90;;;2.10;;
67372;SDS011;54257;54.496;18.412;2023-05-07T07:06:40;4.00;;;2.10;;
67372;SDS011;54257;54.496;18.412;2023-05-07T07:09:06;2.60;;;2.40;;
67372;SDS011;54257;54.496;18.412;2023-05-07T07:11:33;2.40;;;2.00;;
67372;SDS011;54257;54.496;18.412;2023-05-07T07:14:00;4.50;;;1.90;;
67372;SDS011;54257;54.496;18.412;2023-05-07T07:16:27;3.60;;;2.60;;
67372;SDS011;54257;54.496;18.412;2023-05-07T07:18:54;4.30;;;2.10;;
67372;SDS011;54257;54.496;18.412;2023-05-07T07:21:21;2.30;;;2.10;;
67372;SDS011;54257;54.496;18.412;2023-05-07T07:23:47;5.50;;;2.30;;
67372;SDS011;54257;54.496;18.412;2023-05-07T07:26:15;3.90;;;2.00;;
67372;SDS011;54257;54.496;18.412;2023-05-07T07:28:42;3.30;;;2.10;;
67372;SDS011;54257;54.496;18.412;2023-05-07T07:31:10;6.50;;;2.60;;
67372;SDS011;54257;54.496;18.412;2023-05-07T07:33:37;2.10;;;2.00;;
67372;SDS011;54257;54.496;18.412;2023-05-07T07:36:05;2.70;;;1.90;;
67372;SDS011;54257;54.496;18.412;2023-05-07T07:38:33;2.60;;;2.20;;
67372;SDS011;54257;54.496;18.412;2023-05-07T07:41:00;3.30;;;2.20;;
67372;SDS011;54257;54.496;18.412;2023-05-07T07:43:28;3.80;;;2.40;;
67372;SDS011;54257;54.496;18.412;2023-05-07T07:45:54;4.90;;;2.20;;
67372;SDS011;54257;54.496;18.412;2023-05-07T07:48:21;2.20;;;1.90;;
67372;SDS011;54257;54.496;18.412;2023-05-07T07:50:48;2.40;;;1.80;;
67372;SDS011;54257;54.496;18.412;2023-05-07T07:53:16;4.10;;;1.70;;
67372;SDS011;54257;54.496;18.412;2023-05-07T07:55:44;2.70;;;2.00;;
67372;SDS011;54257;54.496;18.412;2023-05-07T07:58:17;3.70;;;1.90;;
67372;SDS011;54257;54.496;18.412;2023-05-07T08:00:44;3.60;;;2.10;;
67372;SDS011;54257;54.496;18.412;2023-05-07T08:03:11;2.60;;;2.20;;
67372;SDS011;54257;54.496;18.412;2023-05-07T08:05:38;4.60;;;2.40;;
67372;SDS011;54257;54.496;18.412;2023-05-07T08:08:07;2.40;;;1.80;;
67372;SDS011;54257;54.496;18.412;2023-05-07T08:10:34;2.00;;;1.80;;
67372;SDS011;54257;54.496;18.412;2023-05-07T08:13:01;4.30;;;1.90;;
67372;SDS011;54257;54.496;18.412;2023-05-07T08:15:30;5.80;;;2.10;;
67372;SDS011;54257;54.496;18.412;2023-05-07T08:17:57;3.20;;;2.00;;
67372;SDS011;54257;54.496;18.412;2023-05-07T08:20:26;3.10;;;2.20;;
67372;SDS011;54257;54.496;18.412;2023-05-07T08:22:54;2.40;;;1.80;;
67372;SDS011;54257;54.496;18.412;2023-05-07T08:25:21;2.10;;;1.90;;
67372;SDS011;54257;54.496;18.412;2023-05-07T08:27:48;2.80;;;1.90;;
67372;SDS011;54257;54.496;18.412;2023-05-07T08:30:15;3.10;;;1.80;;
67372;SDS011;54257;54.496;18.412;2023-05-07T08:32:41;3.30;;;1.90;;
67372;SDS011;54257;54.496;18.412;2023-05-07T08:35:08;2.60;;;1.70;;
67372;SDS011;54257;54.496;18.412;2023-05-07T08:37:35;2.90;;;1.90;;
67372;SDS011;54257;54.496;18.412;2023-05-07T08:40:02;4.00;;;1.90;;
67372;SDS011;54257;54.496;18.412;2023-05-07T08:42:30;3.80;;;2.20;;
67372;SDS011;54257;54.496;18.412;2023-05-07T08:44:57;3.40;;;1.80;;
67372;SDS011;54257;54.496;18.412;2023-05-07T08:47:29;3.30;;;1.90;;
67372;SDS011;54257;54.496;18.412;2023-05-07T08:50:02;1.80;;;1.60;;
67372;SDS011;54257;54.496;18.412;2023-05-07T08:52:29;4.20;;;2.00;;
67372;SDS011;54257;54.496;18.412;2023-05-07T08:54:56;5.70;;;2.10;;
67372;SDS011;54257;54.496;18.412;2023-05-07T08:57:23;3.00;;;1.60;;
67372;SDS011;54257;54.496;18.412;2023-05-07T08:59:51;2.70;;;1.40;;
67372;SDS011;54257;54.496;18.412;2023-05-07T09:02:18;3.90;;;2.10;;
67372;SDS011;54257;54.496;18.412;2023-05-07T09:04:45;1.90;;;1.70;;
67372;SDS011;54257;54.496;18.412;2023-05-07T09:07:11;2.20;;;1.70;;
67372;SDS011;54257;54.496;18.412;2023-05-07T09:09:38;3.60;;;2.20;;
67372;SDS011;54257;54.496;18.412;2023-05-07T09:12:05;2.90;;;2.00;;
67372;SDS011;54257;54.496;18.412;2023-05-07T09:14:32;2.30;;;2.00;;
67372;SDS011;54257;54.496;18.412;2023-05-07T09:16:59;3.10;;;2.30;;
67372;SDS011;54257;54.496;18.412;2023-05-07T09:19:26;2.40;;;2.10;;
67372;SDS011;54257;54.496;18.412;2023-05-07T09:22:00;2.40;;;2.20;;
67372;SDS011;54257;54.496;18.412;2023-05-07T09:24:29;3.70;;;1.90;;
67372;SDS011;54257;54.496;18.412;2023-05-07T09:27:00;3.10;;;1.80;;
67372;SDS011;54257;54.496;18.412;2023-05-07T09:29:28;3.20;;;2.10;;
67372;SDS011;54257;54.496;18.412;2023-05-07T09:31:59;2.20;;;2.00;;
67372;SDS011;54257;54.496;18.412;2023-05-07T09:34:26;4.90;;;2.10;;
67372;SDS011;54257;54.496;18.412;2023-05-07T09:36:54;2.60;;;2.10;;
67372;SDS011;54257;54.496;18.412;2023-05-07T09:39:21;2.90;;;2.10;;
67372;SDS011;54257;54.496;18.412;2023-05-07T09:41:49;3.30;;;2.30;;
67372;SDS011;54257;54.496;18.412;2023-05-07T09:44:17;2.80;;;1.80;;
67372;SDS011;54257;54.496;18.412;2023-05-07T09:46:45;3.80;;;2.10;;
67372;SDS011;54257;54.496;18.412;2023-05-07T09:49:22;6.10;;;1.80;;
67372;SDS011;54257;54.496;18.412;2023-05-07T09:51:51;2.70;;;1.80;;
67372;SDS011;54257;54.496;18.412;2023-05-07T09:54:18;2.30;;;1.60;;
67372;SDS011;54257;54.496;18.412;2023-05-07T09:56:45;5.20;;;1.90;;
67372;SDS011;54257;54.496;18.412;2023-05-07T09:59:15;2.40;;;2.00;;
67372;SDS011;54257;54.496;18.412;2023-05-07T10:01:43;2.70;;;1.90;;
67372;SDS011;54257;54.496;18.412;2023-05-07T10:04:11;2.40;;;1.60;;
67372;SDS011;54257;54.496;18.412;2023-05-07T10:06:39;3.50;;;2.00;;
67372;SDS011;54257;54.496;18.412;2023-05-07T10:09:07;10.70;;;2.20;;
67372;SDS011;54257;54.496;18.412;2023-05-07T10:11:37;1.80;;;1.70;;
67372;SDS011;54257;54.496;18.412;2023-05-07T10:14:05;2.10;;;1.80;;
67372;SDS011;54257;54.496;18.412;2023-05-07T10:16:35;2.70;;;2.00;;
67372;SDS011;54257;54.496;18.412;2023-05-07T10:19:06;2.00;;;1.80;;
67372;SDS011;54257;54.496;18.412;2023-05-07T10:21:39;3.50;;;2.00;;
67372;SDS011;54257;54.496;18.412;2023-05-07T10:24:21;4.30;;;2.10;;
67372;SDS011;54257;54.496;18.412;2023-05-07T10:29:36;2.00;;;1.80;;
67372;SDS011;54257;54.496;18.412;2023-05-07T10:34:42;3.50;;;1.80;;
67372;SDS011;54257;54.496;18.412;2023-05-07T10:37:12;2.00;;;1.60;;
67372;SDS011;54257;54.496;18.412;2023-05-07T10:39:41;4.00;;;2.30;;
67372;SDS011;54257;54.496;18.412;2023-05-07T10:42:14;2.90;;;2.10;;
67372;SDS011;54257;54.496;18.412;2023-05-07T10:44:44;2.00;;;1.80;;
67372;SDS011;54257;54.496;18.412;2023-05-07T10:47:15;1.80;;;1.70;;
67372;SDS011;54257;54.496;18.412;2023-05-07T10:54:39;3.60;;;2.00;;
67372;SDS011;54257;54.496;18.412;2023-05-07T10:57:49;2.90;;;2.00;;
67372;SDS011;54257;54.496;18.412;2023-05-07T11:00:03;2.40;;;1.90;;
67372;SDS011;54257;54.496;18.412;2023-05-07T11:05:33;6.00;;;2.40;;
67372;SDS011;54257;54.496;18.412;2023-05-07T11:08:01;2.00;;;1.80;;
67372;SDS011;54257;54.496;18.412;2023-05-07T11:13:16;1.80;;;1.70;;
67372;SDS011;54257;54.496;18.412;2023-05-07T11:15:44;3.70;;;1.90;;
67372;SDS011;54257;54.496;18.412;2023-05-07T11:18:14;3.00;;;1.90;;
67372;SDS011;54257;54.496;18.412;2023-05-07T11:20:50;2.70;;;1.60;;
67372;SDS011;54257;54.496;18.412;2023-05-07T11:26:05;3.30;;;2.30;;
67372;SDS011;54257;54.496;18.412;2023-05-07T11:28:37;2.60;;;1.90;;
67372;SDS011;54257;54.496;18.412;2023-05-07T11:31:05;2.10;;;1.70;;
67372;SDS011;54257;54.496;18.412;2023-05-07T11:33:32;2.00;;;1.80;;
67372;SDS011;54257;54.496;18.412;2023-05-07T11:36:00;1.60;;;1.50;;
67372;SDS011;54257;54.496;18.412;2023-05-07T11:38:30;3.60;;;1.90;;
67372;SDS011;54257;54.496;18.412;2023-05-07T11:41:01;3.70;;;1.80;;
67372;SDS011;54257;54.496;18.412;2023-05-07T11:43:29;2.50;;;2.10;;
67372;SDS011;54257;54.496;18.412;2023-05-07T11:46:04;3.30;;;2.00;;
67372;SDS011;54257;54.496;18.412;2023-05-07T11:48:35;2.30;;;2.00;;
67372;SDS011;54257;54.496;18.412;2023-05-07T11:51:05;3.90;;;2.20;;
67372;SDS011;54257;54.496;18.412;2023-05-07T11:53:38;2.30;;;2.00;;
67372;SDS011;54257;54.496;18.412;2023-05-07T11:56:07;4.20;;;1.90;;
67372;SDS011;54257;54.496;18.412;2023-05-07T11:58:39;3.30;;;2.00;;
67372;SDS011;54257;54.496;18.412;2023-05-07T12:01:07;4.40;;;2.60;;
67372;SDS011;54257;54.496;18.412;2023-05-07T12:03:36;2.40;;;2.10;;
67372;SDS011;54257;54.496;18.412;2023-05-07T12:06:08;3.40;;;2.20;;
67372;SDS011;54257;54.496;18.412;2023-05-07T12:08:36;4.70;;;1.90;;
67372;SDS011;54257;54.496;18.412;2023-05-07T12:11:08;2.60;;;2.00;;
67372;SDS011;54257;54.496;18.412;2023-05-07T12:13:39;2.60;;;2.40;;
67372;SDS011;54257;54.496;18.412;2023-05-07T12:16:09;3.60;;;2.30;;
67372;SDS011;54257;54.496;18.412;2023-05-07T12:18:36;3.00;;;2.30;;
67372;SDS011;54257;54.496;18.412;2023-05-07T12:21:07;2.10;;;1.80;;
67372;SDS011;54257;54.496;18.412;2023-05-07T12:23:37;2.70;;;2.00;;
67372;SDS011;54257;54.496;18.412;2023-05-07T12:26:05;2.30;;;2.10;;
67372;SDS011;54257;54.496;18.412;2023-05-07T12:28:35;3.20;;;2.40;;
67372;SDS011;54257;54.496;18.412;2023-05-07T12:31:05;3.20;;;1.90;;
67372;SDS011;54257;54.496;18.412;2023-05-07T12:33:33;2.20;;;2.00;;
67372;SDS011;54257;54.496;18.412;2023-05-07T12:36:06;3.30;;;2.10;;
67372;SDS011;54257;54.496;18.412;2023-05-07T12:38:35;2.30;;;2.00;;
67372;SDS011;54257;54.496;18.412;2023-05-07T12:41:05;3.70;;;2.30;;
67372;SDS011;54257;54.496;18.412;2023-05-07T12:43:37;2.70;;;1.90;;
67372;SDS011;54257;54.496;18.412;2023-05-07T12:46:05;5.40;;;2.20;;
67372;SDS011;54257;54.496;18.412;2023-05-07T12:48:37;5.10;;;2.10;;
67372;SDS011;54257;54.496;18.412;2023-05-07T12:51:05;2.20;;;2.00;;
67372;SDS011;54257;54.496;18.412;2023-05-07T12:53:32;2.20;;;2.00;;
67372;SDS011;54257;54.496;18.412;2023-05-07T12:56:02;4.50;;;2.70;;
67372;SDS011;54257;54.496;18.412;2023-05-07T12:58:35;2.20;;;1.60;;
67372;SDS011;54257;54.496;18.412;2023-05-07T13:01:06;4.70;;;2.10;;
67372;SDS011;54257;54.496;18.412;2023-05-07T13:03:36;2.40;;;2.00;;
67372;SDS011;54257;54.496;18.412;2023-05-07T13:06:05;4.50;;;2.70;;
67372;SDS011;54257;54.496;18.412;2023-05-07T13:08:37;2.50;;;2.00;;
67372;SDS011;54257;54.496;18.412;2023-05-07T13:11:06;13.00;;;2.40;;
67372;SDS011;54257;54.496;18.412;2023-05-07T13:13:35;5.40;;;2.50;;
67372;SDS011;54257;54.496;18.412;2023-05-07T13:16:03;2.80;;;1.90;;
67372;SDS011;54257;54.496;18.412;2023-05-07T13:18:31;3.30;;;1.80;;
67372;SDS011;54257;54.496;18.412;2023-05-07T13:20:59;4.30;;;2.20;;
67372;SDS011;54257;54.496;18.412;2023-05-07T13:23:27;2.80;;;1.60;;
67372;SDS011;54257;54.496;18.412;2023-05-07T13:25:54;1.90;;;1.80;;
67372;SDS011;54257;54.496;18.412;2023-05-07T13:28:22;2.60;;;1.90;;
67372;SDS011;54257;54.496;18.412;2023-05-07T13:30:50;3.60;;;2.40;;
67372;SDS011;54257;54.496;18.412;2023-05-07T13:33:18;4.70;;;2.80;;
67372;SDS011;54257;54.496;18.412;2023-05-07T13:35:45;2.80;;;2.00;;
67372;SDS011;54257;54.496;18.412;2023-05-07T13:38:12;3.90;;;2.20;;
67372;SDS011;54257;54.496;18.412;2023-05-07T13:40:39;3.30;;;2.60;;
67372;SDS011;54257;54.496;18.412;2023-05-07T13:43:06;6.00;;;2.70;;
67372;SDS011;54257;54.496;18.412;2023-05-07T13:45:33;3.90;;;2.80;;
67372;SDS011;54257;54.496;18.412;2023-05-07T13:48:00;4.50;;;2.70;;
67372;SDS011;54257;54.496;18.412;2023-05-07T13:50:26;3.90;;;2.80;;
67372;SDS011;54257;54.496;18.412;2023-05-07T13:52:55;4.90;;;2.70;;
67372;SDS011;54257;54.496;18.412;2023-05-07T13:55:23;4.70;;;2.90;;
67372;SDS011;54257;54.496;18.412;2023-05-07T13:57:57;3.30;;;2.50;;
67372;SDS011;54257;54.496;18.412;2023-05-07T14:00:25;3.40;;;2.70;;
67372;SDS011;54257;54.496;18.412;2023-05-07T14:02:54;4.80;;;2.60;;
67372;SDS011;54257;54.496;18.412;2023-05-07T14:05:21;2.70;;;2.40;;
67372;SDS011;54257;54.496;18.412;2023-05-07T14:07:53;3.90;;;2.40;;
67372;SDS011;54257;54.496;18.412;2023-05-07T14:10:21;2.60;;;2.40;;
67372;SDS011;54257;54.496;18.412;2023-05-07T14:12:48;5.00;;;2.60;;
67372;SDS011;54257;54.496;18.412;2023-05-07T14:15:15;2.70;;;2.40;;
67372;SDS011;54257;54.496;18.412;2023-05-07T14:17:43;2.80;;;2.50;;
67372;SDS011;54257;54.496;18.412;2023-05-07T14:20:11;5.70;;;2.70;;
67372;SDS011;54257;54.496;18.412;2023-05-07T14:22:39;2.50;;;2.30;;
67372;SDS011;54257;54.496;18.412;2023-05-07T14:25:06;3.60;;;2.90;;
67372;SDS011;54257;54.496;18.412;2023-05-07T14:27:33;3.50;;;3.10;;
67372;SDS011;54257;54.496;18.412;2023-05-07T14:30:00;5.80;;;2.60;;
67372;SDS011;54257;54.496;18.412;2023-05-07T14:32:27;4.80;;;3.20;;
67372;SDS011;54257;54.496;18.412;2023-05-07T14:34:54;6.10;;;3.20;;
67372;SDS011;54257;54.496;18.412;2023-05-07T14:37:21;5.30;;;3.10;;
67372;SDS011;54257;54.496;18.412;2023-05-07T14:39:48;4.80;;;3.20;;
67372;SDS011;54257;54.496;18.412;2023-05-07T14:42:15;5.80;;;3.50;;
67372;SDS011;54257;54.496;18.412;2023-05-07T14:44:42;4.90;;;3.20;;
67372;SDS011;54257;54.496;18.412;2023-05-07T14:47:09;4.40;;;3.20;;
67372;SDS011;54257;54.496;18.412;2023-05-07T14:49:37;4.10;;;3.10;;
67372;SDS011;54257;54.496;18.412;2023-05-07T14:52:04;5.50;;;3.40;;
67372;SDS011;54257;54.496;18.412;2023-05-07T14:54:36;4.40;;;2.70;;
67372;SDS011;54257;54.496;18.412;2023-05-07T14:57:04;4.40;;;2.90;;